Terminal Aerodrome Forecast
Issued by NWS

Home | Current Version | Previous Version | Text Only | Print | Product List | Glossary On
Versions: 1 2 3 4 5 6 7 8 9 10 11 12 13 14 15 16
000
FTUS45 KGJT 251120
TAFDRO
TAF
KDRO 251120Z 2512/2612 05004KT P6SM FEW250
     FM251600 17004KT P6SM FEW250
     FM252000 23008KT P6SM FEW250
     FM260100 26006KT P6SM SCT250
     FM260200 32005KT P6SM SCT250=

USA.gov is the U.S. government's official web portal to all federal, state and local government web resources and services.